TAF Text Data
IDs:
Format:
Raw Decoded Include METAR

Data at: 1658 UTC 20 May 2022

PAFA 201653Z 06003KT 10SM FEW200 11/01 A3041 RMK AO2 SLP302 T01110006

PAFA 201135Z 2012/2118 VRB03KT P6SM FEW080